createdAt,value
2019-03-27T00:00:52.176Z,6.98
2019-03-27T00:01:52.167Z,7.02
2019-03-27T00:02:52.160Z,6.91
2019-03-27T00:03:52.145Z,6.98
2019-03-27T00:04:52.154Z,7.01
2019-03-27T00:05:52.122Z,6.94
2019-03-27T00:06:52.110Z,6.94
2019-03-27T00:07:52.117Z,7.02
2019-03-27T00:08:52.090Z,6.98
2019-03-27T00:09:52.103Z,6.99
2019-03-27T00:10:52.067Z,7.01
2019-03-27T00:11:52.058Z,6.97
2019-03-27T00:12:52.050Z,6.97
2019-03-27T00:13:52.036Z,6.98
2019-03-27T00:14:52.044Z,6.97
2019-03-27T00:15:52.015Z,6.97
2019-03-27T00:16:52.013Z,6.99
2019-03-27T00:17:51.993Z,6.97
2019-03-27T00:18:51.987Z,6.99
2019-03-27T00:19:51.993Z,6.94
2019-03-27T00:20:51.961Z,6.95
2019-03-27T00:21:51.949Z,6.97
2019-03-27T00:22:51.941Z,6.87
2019-03-27T00:23:51.930Z,6.98
2019-03-27T00:24:51.938Z,6.95
2019-03-27T00:25:51.912Z,6.94
2019-03-27T00:26:51.895Z,6.95
2019-03-27T00:27:51.890Z,6.98
2019-03-27T00:28:51.874Z,6.94
2019-03-27T00:29:51.864Z,6.95
2019-03-27T00:30:52.313Z,6.98
2019-03-27T00:31:51.842Z,6.97
2019-03-27T00:32:51.831Z,6.99
2019-03-27T00:33:51.821Z,6.99
2019-03-27T00:34:51.819Z,6.99
2019-03-27T00:35:51.820Z,6.94
2019-03-27T00:36:51.790Z,6.98
2019-03-27T00:37:51.778Z,6.98
2019-03-27T00:38:51.770Z,6.97
2019-03-27T00:39:51.754Z,7.01
2019-03-27T00:40:51.772Z,6.91
2019-03-27T00:41:51.733Z,6.95
2019-03-27T00:42:51.726Z,6.99
2019-03-27T00:43:51.722Z,6.91
2019-03-27T00:44:51.701Z,7.01
2019-03-27T00:45:51.691Z,6.98
2019-03-27T00:46:59.274Z,6.89
2019-03-27T00:47:51.677Z,7.02
2019-03-27T00:48:51.677Z,6.95
2019-03-27T00:49:51.648Z,6.98
2019-03-27T00:50:51.635Z,6.94
2019-03-27T00:51:51.644Z,7.04
2019-03-27T00:52:51.637Z,6.97
2019-03-27T00:53:51.611Z,7.01
2019-03-27T00:54:51.598Z,6.99
2019-03-27T00:55:51.582Z,6.94
2019-03-27T00:56:51.591Z,6.98
2019-03-27T00:57:51.560Z,6.94
2019-03-27T00:58:51.560Z,7.01
2019-03-27T00:59:51.540Z,6.98
2019-03-27T01:00:51.569Z,6.99
2019-03-27T01:01:51.517Z,7.02
2019-03-27T01:02:51.510Z,7.05
2019-03-27T01:03:51.495Z,7.01
2019-03-27T01:04:51.490Z,6.95
2019-03-27T01:05:51.475Z,7.02
2019-03-27T01:06:51.485Z,7.02
2019-03-27T01:07:51.462Z,7.04
2019-03-27T01:08:51.443Z,6.98
2019-03-27T01:09:51.432Z,6.95
2019-03-27T01:10:51.426Z,6.95
2019-03-27T01:11:51.438Z,6.94
2019-03-27T01:12:51.408Z,6.90
2019-03-27T01:13:51.390Z,6.99
2019-03-27T01:14:51.379Z,6.98
2019-03-27T01:15:51.367Z,6.98
2019-03-27T01:16:51.385Z,7.02
2019-03-27T01:17:51.347Z,7.02
2019-03-27T01:18:51.335Z,7.02
2019-03-27T01:19:51.352Z,7.02
2019-03-27T01:20:51.320Z,6.98
2019-03-27T01:21:51.303Z,6.97
2019-03-27T01:22:51.312Z,6.97
2019-03-27T01:23:51.284Z,6.97
2019-03-27T01:24:51.269Z,6.97
2019-03-27T01:25:51.275Z,7.05
2019-03-27T01:26:51.248Z,6.98
2019-03-27T01:27:51.269Z,6.97
2019-03-27T01:28:51.229Z,6.97
2019-03-27T01:29:51.224Z,7.05
2019-03-27T01:30:51.216Z,7.02
2019-03-27T01:31:51.197Z,7.02
2019-03-27T01:32:51.184Z,6.98
2019-03-27T01:33:51.194Z,6.95
2019-03-27T01:34:51.191Z,6.94
2019-03-27T01:35:51.156Z,6.99
2019-03-27T01:36:51.141Z,6.91
2019-03-27T01:37:51.132Z,7.02
2019-03-27T01:38:51.148Z,6.91
2019-03-27T01:39:51.110Z,7.02
2019-03-27T01:40:51.100Z,6.97
2019-03-27T01:41:51.085Z,6.94
2019-03-27T01:42:51.077Z,6.91
2019-03-27T01:43:51.108Z,6.97
2019-03-27T01:44:51.054Z,6.97
2019-03-27T01:45:53.369Z,6.97
2019-03-27T01:46:51.032Z,6.98
2019-03-27T01:47:51.029Z,7.01
2019-03-27T01:48:51.037Z,6.87
2019-03-27T01:49:51.001Z,6.90
2019-03-27T01:50:50.989Z,6.95
2019-03-27T01:51:50.981Z,6.91
2019-03-27T01:52:50.974Z,6.90
2019-03-27T01:53:50.980Z,6.87
2019-03-27T01:54:50.955Z,6.89
2019-03-27T01:55:50.935Z,6.90
2019-03-27T01:56:50.946Z,6.90
2019-03-27T01:57:50.914Z,6.83
2019-03-27T01:58:50.928Z,6.81
2019-03-27T01:59:50.904Z,6.77
2019-03-27T02:00:50.883Z,6.80
2019-03-27T02:01:50.875Z,6.80
2019-03-27T02:02:50.860Z,6.79
2019-03-27T02:03:50.874Z,6.83
2019-03-27T02:04:50.840Z,6.83
2019-03-27T02:05:50.846Z,6.87
2019-03-27T02:06:50.828Z,6.84
2019-03-27T02:07:50.806Z,6.81
2019-03-27T02:08:50.813Z,6.80
2019-03-27T02:09:50.785Z,6.80
2019-03-27T02:10:50.778Z,6.81
2019-03-27T02:11:50.765Z,6.80
2019-03-27T02:12:50.781Z,6.71
2019-03-27T02:13:50.743Z,6.77
2019-03-27T02:14:50.731Z,6.76
2019-03-27T02:15:50.730Z,6.76
2019-03-27T02:16:50.712Z,6.72
2019-03-27T02:17:50.702Z,6.87
2019-03-27T02:18:50.727Z,6.71
2019-03-27T02:19:50.677Z,6.76
2019-03-27T02:20:50.665Z,6.76
2019-03-27T02:21:50.658Z,6.80
2019-03-27T02:22:50.666Z,6.76
2019-03-27T02:23:50.634Z,6.71
2019-03-27T02:24:50.649Z,6.79
2019-03-27T02:25:50.613Z,6.80
2019-03-27T02:26:50.603Z,6.73
2019-03-27T02:27:50.623Z,6.79
2019-03-27T02:28:50.588Z,6.69
2019-03-27T02:29:50.584Z,6.72
2019-03-27T02:30:50.562Z,6.79
2019-03-27T02:31:50.552Z,6.76
2019-03-27T02:32:50.540Z,6.73
2019-03-27T02:33:58.098Z,6.61
2019-03-27T02:34:50.545Z,6.73
2019-03-27T02:35:50.509Z,6.76
2019-03-27T02:36:50.499Z,6.65
2019-03-27T02:37:50.493Z,6.72
2019-03-27T02:38:50.497Z,6.71
2019-03-27T02:39:50.465Z,6.76
2019-03-27T02:40:50.465Z,6.62
2019-03-27T02:41:50.457Z,6.61
2019-03-27T02:42:50.435Z,6.65
2019-03-27T02:43:50.447Z,6.63
2019-03-27T02:44:50.414Z,6.58
2019-03-27T02:45:50.405Z,6.65
2019-03-27T02:46:50.390Z,6.68
2019-03-27T02:47:50.394Z,6.66
2019-03-27T02:48:50.426Z,6.66
2019-03-27T02:49:50.369Z,6.54
2019-03-27T02:50:50.364Z,6.54
2019-03-27T02:51:50.337Z,6.62
2019-03-27T02:52:50.330Z,6.56
2019-03-27T02:53:50.356Z,6.58
2019-03-27T02:54:50.313Z,6.59
2019-03-27T02:55:50.294Z,6.62
2019-03-27T02:56:50.293Z,6.58
2019-03-27T02:57:50.274Z,6.59
2019-03-27T02:58:50.288Z,6.46
2019-03-27T02:59:50.254Z,6.51
2019-03-27T03:00:50.245Z,6.47
2019-03-27T03:01:50.248Z,6.48
2019-03-27T03:02:50.219Z,6.46
2019-03-27T03:03:50.232Z,6.56
2019-03-27T03:04:50.199Z,6.47
2019-03-27T03:05:50.190Z,6.46
2019-03-27T03:06:50.180Z,6.35
2019-03-27T03:07:50.177Z,6.35
2019-03-27T03:08:50.176Z,6.41
2019-03-27T03:09:50.232Z,6.36
2019-03-27T03:10:50.134Z,6.38
2019-03-27T03:11:50.135Z,6.28
2019-03-27T03:12:50.117Z,6.33
2019-03-27T03:13:50.120Z,6.28
2019-03-27T03:14:50.090Z,6.26
2019-03-27T03:15:50.079Z,6.28
2019-03-27T03:16:50.077Z,6.18
2019-03-27T03:17:50.079Z,6.28
2019-03-27T03:18:50.083Z,6.21
2019-03-27T03:19:50.038Z,6.26
2019-03-27T03:20:50.026Z,6.14
2019-03-27T03:21:50.027Z,6.13
2019-03-27T03:22:50.003Z,6.11
2019-03-27T03:23:50.490Z,6.11
2019-03-27T03:24:49.992Z,6.14
2019-03-27T03:25:49.984Z,6.11
2019-03-27T03:26:51.137Z,6.04
2019-03-27T03:27:49.950Z,6.09
2019-03-27T03:28:49.956Z,6.09
2019-03-27T03:29:49.927Z,6.06
2019-03-27T03:30:49.964Z,6.04
2019-03-27T03:31:49.908Z,6.00
2019-03-27T03:32:57.463Z,6.03
2019-03-27T03:33:49.884Z,6.04
2019-03-27T03:34:57.475Z,6.00
2019-03-27T03:35:49.882Z,5.96
2019-03-27T03:36:49.857Z,6.01
2019-03-27T03:37:49.848Z,5.98
2019-03-27T03:38:49.829Z,5.86
2019-03-27T03:39:49.840Z,6.00
2019-03-27T03:40:49.819Z,5.92
2019-03-27T03:41:49.816Z,5.93
2019-03-27T03:42:49.784Z,5.95
2019-03-27T03:43:49.774Z,5.92
2019-03-27T03:44:49.786Z,5.91
2019-03-27T03:45:49.756Z,5.96
2019-03-27T03:46:59.377Z,5.86
2019-03-27T03:47:50.731Z,5.95
2019-03-27T03:48:49.717Z,5.85
2019-03-27T03:49:49.726Z,5.89
2019-03-27T03:50:49.706Z,5.93
2019-03-27T03:51:49.687Z,5.93
2019-03-27T03:52:49.680Z,5.95
2019-03-27T03:53:49.664Z,5.93
2019-03-27T03:54:49.682Z,5.81
2019-03-27T03:55:49.645Z,5.88
2019-03-27T03:56:49.637Z,5.83
2019-03-27T03:57:49.622Z,5.81
2019-03-27T03:58:49.618Z,5.78
2019-03-27T03:59:49.619Z,5.74
2019-03-27T04:00:49.611Z,5.68
2019-03-27T04:01:49.579Z,5.77
2019-03-27T04:02:49.578Z,5.78
2019-03-27T04:03:49.557Z,5.70
2019-03-27T04:04:49.564Z,5.81
2019-03-27T04:05:49.535Z,5.73
2019-03-27T04:06:49.523Z,5.68
2019-03-27T04:07:49.513Z,5.68
2019-03-27T04:08:49.505Z,5.71
2019-03-27T04:09:49.511Z,5.68
2019-03-27T04:10:49.487Z,5.68
2019-03-27T04:11:49.472Z,5.68
2019-03-27T04:12:49.460Z,5.67
2019-03-27T04:13:49.447Z,5.68
2019-03-27T04:14:49.457Z,5.70
2019-03-27T04:15:49.426Z,5.68
2019-03-27T04:16:49.419Z,5.71
2019-03-27T04:17:49.404Z,5.70
2019-03-27T04:18:49.399Z,5.71
2019-03-27T04:19:49.403Z,5.70
2019-03-27T04:20:49.385Z,5.75
2019-03-27T04:21:49.362Z,5.74
2019-03-27T04:22:49.349Z,5.67
2019-03-27T04:23:49.340Z,5.74
2019-03-27T04:24:51.057Z,5.81
2019-03-27T04:26:09.016Z,5.73
2019-03-27T04:26:50.311Z,5.74
2019-03-27T04:27:49.296Z,5.77
2019-03-27T04:28:49.311Z,5.75
2019-03-27T04:29:49.281Z,5.74
2019-03-27T04:30:49.285Z,5.73
2019-03-27T04:31:49.258Z,5.67
2019-03-27T04:32:49.244Z,5.78
2019-03-27T04:33:49.237Z,5.75
2019-03-27T04:34:49.229Z,5.77
2019-03-27T04:35:49.237Z,5.68
2019-03-27T04:36:49.200Z,5.74
2019-03-27T04:37:49.193Z,5.78
2019-03-27T04:38:49.194Z,5.77
2019-03-27T04:39:49.169Z,5.77
2019-03-27T04:40:49.168Z,5.78
2019-03-27T04:41:49.165Z,5.73
2019-03-27T04:42:49.136Z,5.71
2019-03-27T04:43:49.127Z,5.81
2019-03-27T04:44:49.113Z,5.75
2019-03-27T04:45:49.110Z,5.73
2019-03-27T04:46:49.123Z,5.75
2019-03-27T04:47:49.079Z,5.74
2019-03-27T04:48:49.068Z,5.68
2019-03-27T04:49:49.056Z,5.74
2019-03-27T04:50:49.044Z,5.71
2019-03-27T04:51:49.054Z,5.71
2019-03-27T04:52:49.023Z,5.77
2019-03-27T04:53:49.013Z,5.77
2019-03-27T04:54:49.006Z,5.77
2019-03-27T04:55:48.994Z,5.75
2019-03-27T04:56:48.999Z,5.74
2019-03-27T04:57:48.983Z,5.77
2019-03-27T04:58:48.960Z,5.81
2019-03-27T04:59:48.950Z,5.74
2019-03-27T05:00:48.937Z,5.71
2019-03-27T05:01:48.950Z,5.81
2019-03-27T05:02:48.916Z,5.77
2019-03-27T05:03:48.911Z,5.75
2019-03-27T05:04:48.951Z,5.73
2019-03-27T05:05:48.884Z,5.73
2019-03-27T05:06:48.900Z,5.77
2019-03-27T05:07:48.861Z,5.68
2019-03-27T05:08:48.855Z,5.75
2019-03-27T05:09:48.849Z,5.77
2019-03-27T05:10:48.828Z,5.70
2019-03-27T05:11:48.837Z,5.82
2019-03-27T05:12:48.898Z,5.77
2019-03-27T05:13:48.799Z,5.78
2019-03-27T05:14:48.784Z,5.68
2019-03-27T05:15:48.784Z,5.81
2019-03-27T05:16:48.788Z,5.71
2019-03-27T05:17:48.764Z,5.77
2019-03-27T05:18:48.751Z,5.77
2019-03-27T05:19:48.730Z,5.71
2019-03-27T05:20:48.719Z,5.71
2019-03-27T05:21:48.729Z,5.83
2019-03-27T05:22:48.702Z,5.82
2019-03-27T05:23:48.697Z,5.81
2019-03-27T05:24:48.674Z,5.75
2019-03-27T05:25:48.670Z,5.71
2019-03-27T05:26:48.670Z,5.81
2019-03-27T05:27:48.645Z,5.81
2019-03-27T05:28:48.630Z,5.85
2019-03-27T05:29:48.619Z,5.82
2019-03-27T05:30:48.607Z,5.81
2019-03-27T05:31:48.619Z,5.85
2019-03-27T05:32:48.606Z,5.78
2019-03-27T05:33:48.577Z,5.77
2019-03-27T05:34:48.565Z,5.75
2019-03-27T05:35:48.567Z,5.81
2019-03-27T05:36:48.567Z,5.78
2019-03-27T05:37:48.530Z,5.77
2019-03-27T05:38:48.520Z,5.73
2019-03-27T05:39:48.509Z,5.75
2019-03-27T05:40:48.518Z,5.77
2019-03-27T05:41:48.506Z,5.83
2019-03-27T05:43:00.011Z,5.83
2019-03-27T05:43:49.466Z,5.83
2019-03-27T05:44:48.456Z,5.78
2019-03-27T05:45:48.444Z,5.81
2019-03-27T05:46:48.448Z,5.86
2019-03-27T05:47:58.821Z,5.85
2019-03-27T05:48:49.410Z,5.85
2019-03-27T05:49:48.397Z,5.83
2019-03-27T05:50:48.402Z,5.83
2019-03-27T05:51:48.397Z,5.82
2019-03-27T05:52:48.370Z,5.82
2019-03-27T05:53:48.353Z,5.78
2019-03-27T05:54:48.348Z,5.88
2019-03-27T05:55:48.332Z,5.91
2019-03-27T05:56:48.341Z,5.82
2019-03-27T05:57:48.309Z,5.82
2019-03-27T05:58:48.300Z,5.82
2019-03-27T05:59:48.295Z,5.82
2019-03-27T06:00:48.279Z,5.81
2019-03-27T06:01:48.287Z,5.91
2019-03-27T06:02:48.281Z,5.91
2019-03-27T06:03:48.247Z,5.93
2019-03-27T06:04:48.240Z,5.93
2019-03-27T06:05:48.228Z,5.91
2019-03-27T06:06:48.232Z,5.75
2019-03-27T06:07:48.203Z,5.91
2019-03-27T06:08:48.211Z,5.95
2019-03-27T06:09:48.181Z,5.91
2019-03-27T06:10:48.174Z,5.83
2019-03-27T06:11:48.176Z,5.88
2019-03-27T06:12:48.157Z,5.89
2019-03-27T06:13:48.148Z,5.93
2019-03-27T06:14:48.133Z,5.93
2019-03-27T06:15:48.128Z,5.96
2019-03-27T06:16:48.126Z,5.96
2019-03-27T06:17:48.096Z,5.96
2019-03-27T06:18:48.085Z,5.98
2019-03-27T06:19:48.071Z,5.95
2019-03-27T06:20:48.067Z,5.98
2019-03-27T06:21:48.073Z,5.91
2019-03-27T06:22:48.043Z,6.00
2019-03-27T06:23:48.031Z,5.92
2019-03-27T06:24:48.016Z,6.04
2019-03-27T06:25:48.009Z,5.93
2019-03-27T06:26:48.015Z,6.06
2019-03-27T06:27:47.988Z,6.04
2019-03-27T06:28:47.974Z,6.03
2019-03-27T06:29:47.964Z,6.11
2019-03-27T06:30:47.951Z,6.07
2019-03-27T06:31:47.944Z,6.06
2019-03-27T06:32:47.953Z,6.10
2019-03-27T06:33:47.919Z,6.06
2019-03-27T06:34:47.908Z,6.06
2019-03-27T06:35:47.898Z,6.11
2019-03-27T06:36:47.885Z,6.14
2019-03-27T06:37:47.896Z,6.21
2019-03-27T06:38:47.883Z,6.19
2019-03-27T06:39:47.856Z,6.18
2019-03-27T06:40:47.844Z,6.22
2019-03-27T06:41:47.837Z,6.22
2019-03-27T06:42:47.840Z,6.16
2019-03-27T06:43:47.815Z,6.14
2019-03-27T06:44:47.801Z,6.19
2019-03-27T06:45:47.787Z,6.18
2019-03-27T06:46:47.780Z,6.16
2019-03-27T06:47:47.789Z,6.19
2019-03-27T06:48:47.757Z,6.18
2019-03-27T06:49:47.752Z,6.16
2019-03-27T06:50:47.736Z,6.32
2019-03-27T06:51:47.721Z,6.18
2019-03-27T06:52:47.729Z,6.25
2019-03-27T06:53:47.702Z,6.14
2019-03-27T06:54:47.690Z,6.21
2019-03-27T06:55:47.679Z,6.14
2019-03-27T06:56:47.670Z,6.26
2019-03-27T06:57:47.676Z,6.19
2019-03-27T06:58:54.647Z,6.22
2019-03-27T06:59:48.637Z,6.25
2019-03-27T07:00:47.627Z,6.25
2019-03-27T07:01:47.620Z,6.29
2019-03-27T07:02:47.623Z,6.35
2019-03-27T07:03:47.595Z,6.30
2019-03-27T07:04:47.585Z,6.33
2019-03-27T07:05:47.573Z,6.41
2019-03-27T07:06:47.565Z,6.46
2019-03-27T07:07:47.571Z,6.46
2019-03-27T07:08:47.542Z,6.41
2019-03-27T07:09:47.536Z,6.56
2019-03-27T07:10:47.520Z,6.62
2019-03-27T07:11:47.509Z,6.61
2019-03-27T07:12:47.518Z,6.59
2019-03-27T07:13:47.495Z,6.61
2019-03-27T07:14:47.478Z,6.58
2019-03-27T07:15:47.467Z,6.69
2019-03-27T07:16:47.455Z,6.68
2019-03-27T07:17:47.465Z,6.65
2019-03-27T07:18:47.440Z,6.63
2019-03-27T07:19:47.439Z,6.62
2019-03-27T07:20:47.421Z,6.63
2019-03-27T07:21:47.425Z,6.65
2019-03-27T07:22:47.393Z,6.59
2019-03-27T07:23:47.399Z,6.58
2019-03-27T07:24:47.377Z,6.65
2019-03-27T07:25:47.366Z,6.69
2019-03-27T07:26:47.376Z,6.65
2019-03-27T07:27:47.341Z,6.68
2019-03-27T07:28:47.352Z,6.61
2019-03-27T07:29:47.333Z,6.71
2019-03-27T07:30:47.307Z,6.65
2019-03-27T07:31:47.302Z,6.61
2019-03-27T07:32:47.306Z,6.66
2019-03-27T07:33:47.277Z,6.68
2019-03-27T07:34:47.267Z,6.66
2019-03-27T07:35:47.255Z,6.61
2019-03-27T07:36:47.245Z,6.58
2019-03-27T07:37:47.253Z,6.61
2019-03-27T07:38:47.225Z,6.61
2019-03-27T07:39:47.222Z,6.61
2019-03-27T07:40:47.203Z,6.69
2019-03-27T07:41:47.191Z,6.63
2019-03-27T07:42:47.201Z,6.59
2019-03-27T07:43:47.177Z,6.72
2019-03-27T07:44:47.160Z,6.76
2019-03-27T07:45:47.148Z,6.73
2019-03-27T07:46:47.139Z,6.77
2019-03-27T07:47:48.230Z,6.83
2019-03-27T07:48:53.923Z,6.79
2019-03-27T07:49:48.106Z,6.79
2019-03-27T07:50:47.101Z,6.84
2019-03-27T07:51:47.088Z,6.90
2019-03-27T07:52:47.096Z,6.84
2019-03-27T07:53:47.064Z,6.99
2019-03-27T07:54:47.055Z,7.09
2019-03-27T07:55:47.064Z,6.99
2019-03-27T07:56:47.032Z,7.05
2019-03-27T07:57:47.046Z,7.09
2019-03-27T07:58:47.012Z,7.15
2019-03-27T07:59:47.000Z,7.12
2019-03-27T08:00:46.994Z,7.19
2019-03-27T08:01:46.988Z,7.22
2019-03-27T08:02:46.989Z,7.22
2019-03-27T08:03:46.964Z,7.26
2019-03-27T08:04:46.946Z,7.38
2019-03-27T08:05:46.936Z,7.23
2019-03-27T08:06:46.925Z,7.35
2019-03-27T08:07:46.935Z,7.40
2019-03-27T08:08:46.903Z,7.42
2019-03-27T08:09:46.891Z,7.40
2019-03-27T08:10:46.882Z,7.42
2019-03-27T08:11:46.875Z,7.40
2019-03-27T08:12:46.883Z,7.49
2019-03-27T08:13:46.852Z,7.47
2019-03-27T08:14:46.838Z,7.52
2019-03-27T08:15:46.835Z,7.52
2019-03-27T08:16:46.821Z,7.55
2019-03-27T08:17:46.824Z,7.53
2019-03-27T08:18:46.797Z,7.53
2019-03-27T08:19:46.785Z,7.45
2019-03-27T08:20:46.775Z,7.53
2019-03-27T08:21:46.765Z,7.47
2019-03-27T08:22:46.773Z,7.52
2019-03-27T08:23:46.743Z,7.58
2019-03-27T08:24:46.732Z,7.53
2019-03-27T08:25:46.726Z,7.56
2019-03-27T08:26:46.713Z,7.59
2019-03-27T08:27:46.722Z,7.59
2019-03-27T08:28:46.692Z,7.66
2019-03-27T08:29:46.679Z,7.69
2019-03-27T08:30:46.667Z,7.71
2019-03-27T08:31:46.661Z,7.84
2019-03-27T08:32:46.675Z,7.81
2019-03-27T08:33:46.636Z,7.90
2019-03-27T08:34:46.626Z,7.93
2019-03-27T08:35:46.615Z,7.92
2019-03-27T08:36:46.604Z,7.93
2019-03-27T08:37:46.620Z,7.89
2019-03-27T08:38:46.583Z,7.94
2019-03-27T08:39:46.572Z,7.93
2019-03-27T08:40:46.562Z,7.89
2019-03-27T08:41:46.556Z,7.90
2019-03-27T08:42:46.562Z,8.03
2019-03-27T08:43:46.535Z,8.08
2019-03-27T08:44:46.522Z,8.14
2019-03-27T08:45:46.509Z,8.20
2019-03-27T08:46:46.499Z,8.21
2019-03-27T08:47:46.507Z,8.35
2019-03-27T08:48:46.480Z,8.37
2019-03-27T08:49:46.478Z,8.48
2019-03-27T08:50:46.456Z,8.58
2019-03-27T08:51:46.444Z,8.63
2019-03-27T08:52:46.454Z,8.76
2019-03-27T08:53:46.428Z,8.81
2019-03-27T08:54:46.412Z,8.86
2019-03-27T08:55:46.403Z,9.01
2019-03-27T08:56:46.392Z,9.09
2019-03-27T08:57:46.427Z,9.16
2019-03-27T08:58:46.378Z,9.28
2019-03-27T08:59:46.361Z,9.28
2019-03-27T09:00:46.350Z,9.27
2019-03-27T09:01:46.350Z,9.38
2019-03-27T09:02:46.352Z,9.43
2019-03-27T09:03:46.317Z,9.39
2019-03-27T09:04:46.306Z,9.39
2019-03-27T09:05:46.296Z,9.38
2019-03-27T09:06:46.287Z,9.38
2019-03-27T09:07:46.427Z,9.32
2019-03-27T09:08:46.262Z,9.34
2019-03-27T09:09:46.253Z,9.25
2019-03-27T09:10:46.243Z,9.27
2019-03-27T09:11:46.236Z,9.15
2019-03-27T09:12:46.243Z,9.18
2019-03-27T09:13:46.218Z,9.16
2019-03-27T09:14:46.202Z,9.18
2019-03-27T09:15:46.189Z,9.34
2019-03-27T09:16:46.180Z,9.35
2019-03-27T09:17:46.189Z,9.42
2019-03-27T09:18:46.157Z,9.56
2019-03-27T09:19:46.154Z,9.79
2019-03-27T09:20:46.135Z,9.93
2019-03-27T09:21:46.122Z,9.96
2019-03-27T09:22:46.134Z,10.18
2019-03-27T09:23:46.163Z,10.18
2019-03-27T09:24:46.095Z,10.34
2019-03-27T09:25:46.081Z,10.39
2019-03-27T09:26:46.075Z,10.36
2019-03-27T09:27:46.079Z,10.40
2019-03-27T09:28:46.052Z,10.39
2019-03-27T09:29:46.042Z,10.40
2019-03-27T09:30:46.032Z,10.34
2019-03-27T09:31:46.019Z,10.26
2019-03-27T09:32:46.026Z,10.28
2019-03-27T09:33:45.995Z,10.30
2019-03-27T09:34:45.989Z,10.22
2019-03-27T09:35:46.015Z,10.18
2019-03-27T09:36:45.969Z,10.10
2019-03-27T09:37:45.973Z,10.07
2019-03-27T09:38:45.941Z,10.06
2019-03-27T09:39:45.939Z,10.01
2019-03-27T09:40:45.925Z,9.94
2019-03-27T09:41:45.910Z,9.96
2019-03-27T09:42:45.922Z,9.93
2019-03-27T09:43:45.913Z,9.91
2019-03-27T09:44:45.960Z,9.91
2019-03-27T09:45:45.883Z,9.94
2019-03-27T09:46:45.859Z,9.88
2019-03-27T09:47:45.848Z,9.78
2019-03-27T09:48:45.855Z,9.83
2019-03-27T09:49:49.923Z,9.85
2019-03-27T09:50:45.811Z,9.78
2019-03-27T09:51:45.801Z,9.75
2019-03-27T09:52:45.795Z,9.79
2019-03-27T09:53:45.798Z,9.79
2019-03-27T09:54:45.837Z,9.83
2019-03-27T09:55:45.759Z,9.85
2019-03-27T09:56:45.761Z,9.91
2019-03-27T09:57:45.737Z,9.99
2019-03-27T09:58:45.748Z,10.03
2019-03-27T09:59:45.717Z,10.22
2019-03-27T10:00:45.705Z,10.26
2019-03-27T10:01:45.693Z,10.51
2019-03-27T10:02:45.689Z,10.58
2019-03-27T10:03:45.690Z,10.68
2019-03-27T10:04:45.662Z,10.83
2019-03-27T10:05:45.650Z,10.83
2019-03-27T10:06:45.642Z,10.91
2019-03-27T10:07:45.630Z,10.83
2019-03-27T10:08:45.638Z,10.84
2019-03-27T10:09:45.713Z,10.80
2019-03-27T10:10:45.596Z,10.78
2019-03-27T10:11:45.586Z,10.68
2019-03-27T10:12:45.576Z,10.70
2019-03-27T10:13:45.583Z,10.66
2019-03-27T10:14:47.560Z,10.63
2019-03-27T10:15:45.542Z,10.70
2019-03-27T10:16:45.531Z,10.63
2019-03-27T10:17:45.520Z,10.66
2019-03-27T10:18:47.441Z,10.66
2019-03-27T10:19:45.513Z,10.73
2019-03-27T10:20:45.489Z,10.77
2019-03-27T10:21:45.479Z,10.81
2019-03-27T10:22:45.468Z,10.77
2019-03-27T10:23:45.488Z,10.76
2019-03-27T10:24:45.445Z,10.68
2019-03-27T10:25:45.434Z,10.66
2019-03-27T10:26:45.424Z,10.65
2019-03-27T10:27:45.417Z,10.70
2019-03-27T10:28:45.426Z,10.65
2019-03-27T10:29:45.394Z,10.59
2019-03-27T10:30:45.380Z,10.56
2019-03-27T10:31:45.374Z,10.63
2019-03-27T10:32:45.366Z,10.70
2019-03-27T10:33:45.367Z,10.53
2019-03-27T10:34:45.336Z,10.66
2019-03-27T10:35:45.328Z,10.60
2019-03-27T10:36:45.321Z,10.62
2019-03-27T10:37:45.309Z,10.62
2019-03-27T10:38:45.311Z,10.62
2019-03-27T10:39:45.283Z,10.63
2019-03-27T10:40:45.273Z,10.62
2019-03-27T10:41:45.268Z,10.66
2019-03-27T10:42:45.252Z,10.66
2019-03-27T10:43:45.262Z,10.71
2019-03-27T10:44:45.229Z,10.65
2019-03-27T10:45:45.314Z,10.76
2019-03-27T10:46:45.214Z,10.74
2019-03-27T10:47:45.200Z,10.74
2019-03-27T10:48:52.547Z,10.84
2019-03-27T10:49:46.175Z,10.92
2019-03-27T10:50:45.172Z,10.88
2019-03-27T10:51:45.153Z,10.95
2019-03-27T10:52:45.144Z,11.10
2019-03-27T10:53:45.151Z,11.19
2019-03-27T10:54:45.123Z,11.20
2019-03-27T10:55:45.120Z,11.31
2019-03-27T10:56:45.099Z,11.36
2019-03-27T10:57:45.091Z,11.35
2019-03-27T10:58:45.098Z,11.36
2019-03-27T10:59:45.069Z,11.36
2019-03-27T11:00:45.057Z,11.41
2019-03-27T11:01:45.048Z,11.43
2019-03-27T11:02:45.034Z,11.39
2019-03-27T11:03:45.043Z,11.41
2019-03-27T11:04:45.022Z,11.43
2019-03-27T11:05:45.005Z,11.39
2019-03-27T11:06:44.993Z,11.36
2019-03-27T11:07:45.062Z,11.41
2019-03-27T11:08:44.994Z,11.36
2019-03-27T11:09:44.960Z,11.24
2019-03-27T11:10:44.949Z,11.27
2019-03-27T11:11:44.941Z,11.21
2019-03-27T11:12:44.926Z,11.19
2019-03-27T11:13:44.966Z,11.17
2019-03-27T11:14:44.905Z,11.16
2019-03-27T11:15:44.894Z,11.21
2019-03-27T11:16:44.888Z,11.17
2019-03-27T11:17:44.876Z,11.28
2019-03-27T11:18:44.885Z,11.21
2019-03-27T11:19:44.858Z,11.17
2019-03-27T11:20:44.840Z,11.14
2019-03-27T11:21:44.830Z,11.24
2019-03-27T11:22:44.842Z,11.07
2019-03-27T11:23:44.833Z,11.11
2019-03-27T11:24:44.798Z,11.10
2019-03-27T11:25:44.788Z,11.19
2019-03-27T11:26:44.779Z,11.19
2019-03-27T11:27:44.771Z,11.25
2019-03-27T11:28:44.777Z,11.25
2019-03-27T11:29:44.749Z,11.29
2019-03-27T11:30:48.211Z,11.29
2019-03-27T11:31:44.723Z,11.41
2019-03-27T11:32:44.809Z,11.50
2019-03-27T11:33:44.725Z,11.43
2019-03-27T11:34:44.696Z,11.44
2019-03-27T11:35:44.691Z,11.46
2019-03-27T11:36:44.696Z,11.44
2019-03-27T11:37:44.657Z,11.39
2019-03-27T11:38:44.668Z,11.36
2019-03-27T11:39:44.636Z,11.36
2019-03-27T11:40:44.634Z,11.34
2019-03-27T11:41:44.615Z,11.39
2019-03-27T11:42:44.604Z,11.39
2019-03-27T11:43:54.799Z,11.44
2019-03-27T11:44:45.582Z,11.50
2019-03-27T11:45:44.573Z,11.44
2019-03-27T11:46:44.561Z,11.38
2019-03-27T11:47:44.554Z,11.38
2019-03-27T11:48:44.566Z,11.25
2019-03-27T11:49:44.529Z,11.32
2019-03-27T11:50:45.539Z,11.36
2019-03-27T11:51:44.506Z,11.39
2019-03-27T11:52:44.499Z,11.35
2019-03-27T11:53:44.502Z,11.28
2019-03-27T11:54:44.485Z,11.25
2019-03-27T11:55:44.467Z,11.19
2019-03-27T11:56:44.453Z,11.20
2019-03-27T11:57:44.441Z,11.21
2019-03-27T11:58:44.464Z,11.28
2019-03-27T11:59:53.832Z,11.44
2019-03-27T12:00:54.613Z,11.47
2019-03-27T12:01:45.396Z,11.46
2019-03-27T12:02:44.388Z,11.46
2019-03-27T12:03:44.401Z,11.43
2019-03-27T12:04:44.372Z,11.47
2019-03-27T12:05:45.849Z,11.49
2019-03-27T12:06:44.343Z,11.59
2019-03-27T12:07:44.335Z,11.68
2019-03-27T12:08:44.663Z,11.62
2019-03-27T12:09:44.311Z,11.74
2019-03-27T12:10:44.301Z,11.68
2019-03-27T12:11:44.297Z,11.68
2019-03-27T12:12:44.306Z,11.80
2019-03-27T12:13:44.286Z,11.72
2019-03-27T12:14:44.257Z,11.72
2019-03-27T12:15:44.252Z,11.77
2019-03-27T12:16:44.235Z,11.82
2019-03-27T12:17:44.229Z,11.83
2019-03-27T12:18:44.213Z,11.87
2019-03-27T12:19:44.223Z,11.99
2019-03-27T12:20:57.732Z,11.94
2019-03-27T12:21:45.190Z,11.97
2019-03-27T12:22:56.986Z,11.93
2019-03-27T12:23:45.160Z,11.86
2019-03-27T12:24:44.172Z,11.96
2019-03-27T12:25:44.137Z,11.93
2019-03-27T12:26:44.134Z,11.94
2019-03-27T12:27:44.188Z,11.93
2019-03-27T12:28:44.109Z,12.05
2019-03-27T12:29:44.247Z,12.08
2019-03-27T12:30:44.086Z,12.08
2019-03-27T12:31:44.074Z,12.05
2019-03-27T12:32:44.062Z,12.09
2019-03-27T12:33:44.054Z,12.12
2019-03-27T12:34:44.062Z,12.23
2019-03-27T12:35:44.034Z,12.15
2019-03-27T12:36:44.022Z,12.23
2019-03-27T12:37:44.008Z,12.31
2019-03-27T12:38:43.996Z,12.33
2019-03-27T12:39:44.005Z,12.45
2019-03-27T12:40:43.977Z,12.56
2019-03-27T12:41:43.965Z,12.57
2019-03-27T12:42:43.955Z,12.54
2019-03-27T12:43:43.944Z,12.59
2019-03-27T12:44:43.955Z,12.57
2019-03-27T12:45:43.929Z,12.64
2019-03-27T12:46:43.979Z,12.69
2019-03-27T12:47:43.904Z,12.67
2019-03-27T12:48:43.892Z,12.66
2019-03-27T12:49:43.899Z,12.81
2019-03-27T12:50:44.478Z,12.97
2019-03-27T12:51:50.975Z,12.87
2019-03-27T12:52:43.850Z,12.95
2019-03-27T12:53:43.915Z,12.92
2019-03-27T12:54:43.855Z,12.85
2019-03-27T12:55:43.815Z,12.81
2019-03-27T12:56:43.804Z,12.66
2019-03-27T12:57:43.799Z,12.71
2019-03-27T12:58:43.783Z,12.71
2019-03-27T12:59:43.791Z,12.74
2019-03-27T13:00:43.765Z,12.85
2019-03-27T13:01:43.749Z,12.89
2019-03-27T13:02:43.740Z,13.09
2019-03-27T13:03:44.579Z,13.22
2019-03-27T13:04:43.736Z,13.29
2019-03-27T13:05:43.726Z,13.15
2019-03-27T13:06:43.695Z,13.32
2019-03-27T13:07:50.010Z,13.38
2019-03-27T13:08:44.674Z,13.43
2019-03-27T13:09:43.685Z,13.55
2019-03-27T13:10:43.692Z,13.59
2019-03-27T13:11:43.646Z,13.67